Mahon, Indiana
Current Conditions -  °F | °C
As of 9:15 AM on Thursday 29 Jan 2015 (Local Time) from KHHG Reporting Station
Scattered Clouds Scattered Clouds  
Wind Chill: 32°   Ceiling: Unl
Heat Index: 39°   Visibility: 10mi
Dew Point: 28°   Wind: 10mph
Humidity: 63%   Direction: 210°SSW
Pressure: 29.73"   Gusts: 18mph
Location:  40.9238°N, 85.5001°W
Report Text: KHHG 291415Z AUTO 21009G16KT 10SM SCT034 04/M02 A2973 RMK AO2 T00401025
Loading
Personal Weather Stations






























Interactive Weather Map New forecast layout! Learn more

10-Day Weather Forecast

Advertisements
Track Severe Weather on mobile